Time,TemperatureF,DewpointF,PressureIn,WindDirection,WindDirectionDegrees,WindSpeedMPH,WindSpeedGustMPH,Humidity,HourlyPrecipIn,Conditions,Clouds,dailyrainin,SoftwareType,DateUTC
2013-08-11 00:07:00,54.7,54.1,30.07,North,0,0.0,-999.0,98,-99.99,,,0.00,Acu-Link.com,2013-08-11 04:07:00,
2013-08-11 00:22:00,54.5,53.9,30.07,North,0,0.0,-999.0,98,-99.99,,,0.00,Acu-Link.com,2013-08-11 04:22:00,
2013-08-11 00:37:00,53.6,53.0,30.07,North,0,0.0,-999.0,98,-99.99,,,0.00,Acu-Link.com,2013-08-11 04:37:00,
2013-08-11 00:52:00,53.2,52.7,30.06,North,0,0.0,-999.0,98,-99.99,,,0.00,Acu-Link.com,2013-08-11 04:52:00,
2013-08-11 01:07:00,53.1,52.5,30.07,North,0,0.0,-999.0,98,-99.99,,,0.00,Acu-Link.com,2013-08-11 05:07:00,
2013-08-11 01:23:00,52.9,52.3,30.07,North,0,0.0,-999.0,98,-99.99,,,0.00,Acu-Link.com,2013-08-11 05:23:00,
2013-08-11 01:38:00,52.5,52.0,30.07,North,0,0.0,-999.0,98,-99.99,,,0.00,Acu-Link.com,2013-08-11 05:38:00,
2013-08-11 01:53:00,52.5,52.0,30.07,North,0,0.0,-999.0,98,-99.99,,,0.00,Acu-Link.com,2013-08-11 05:53:00,
2013-08-11 02:08:00,52.3,51.8,30.08,North,0,0.0,-999.0,98,-99.99,,,0.00,Acu-Link.com,2013-08-11 06:08:00,
2013-08-11 02:23:00,52.3,51.8,30.08,North,0,0.0,-999.0,98,-99.99,,,0.00,Acu-Link.com,2013-08-11 06:23:00,
2013-08-11 02:39:00,52.3,51.8,30.08,North,0,0.0,-999.0,98,-99.99,,,0.00,Acu-Link.com,2013-08-11 06:39:00,
2013-08-11 02:54:00,52.2,51.6,30.07,North,0,0.0,-999.0,98,-99.99,,,0.00,Acu-Link.com,2013-08-11 06:54:00,
2013-08-11 03:09:00,52.0,51.4,30.07,North,0,0.0,-999.0,98,-99.99,,,0.00,Acu-Link.com,2013-08-11 07:09:00,
2013-08-11 03:24:00,51.8,51.3,30.07,North,0,0.0,-999.0,98,-99.99,,,0.00,Acu-Link.com,2013-08-11 07:24:00,
2013-08-11 03:39:00,52.0,51.4,30.08,North,0,0.0,-999.0,98,-99.99,,,0.00,Acu-Link.com,2013-08-11 07:39:00,
2013-08-11 03:55:00,52.0,51.4,30.07,North,0,0.0,-999.0,98,-99.99,,,0.00,Acu-Link.com,2013-08-11 07:55:00,
2013-08-11 04:10:00,52.2,51.6,30.07,North,0,0.0,-999.0,98,-99.99,,,0.00,Acu-Link.com,2013-08-11 08:10:00,
2013-08-11 04:27:00,52.3,51.8,30.07,North,0,0.0,-999.0,98,-99.99,,,0.00,Acu-Link.com,2013-08-11 08:27:00,
2013-08-11 04:42:00,52.3,51.8,30.07,North,0,0.0,-999.0,98,-99.99,,,0.00,Acu-Link.com,2013-08-11 08:42:00,
2013-08-11 04:57:00,52.3,51.8,30.07,North,0,0.0,-999.0,98,-99.99,,,0.00,Acu-Link.com,2013-08-11 08:57:00,
2013-08-11 05:12:00,52.7,52.2,30.07,North,0,0.0,-999.0,98,-99.99,,,0.00,Acu-Link.com,2013-08-11 09:12:00,
2013-08-11 05:27:00,52.9,52.3,30.07,North,0,0.0,-999.0,98,-99.99,,,0.00,Acu-Link.com,2013-08-11 09:27:00,
2013-08-11 05:57:00,53.1,52.5,30.08,North,0,0.0,-999.0,98,-99.99,,,0.00,Acu-Link.com,2013-08-11 09:57:00,
2013-08-11 06:27:00,52.9,52.3,30.08,North,0,0.0,-999.0,98,-99.99,,,0.00,Acu-Link.com,2013-08-11 10:27:00,
2013-08-11 06:43:00,53.8,53.2,30.09,North,0,0.0,-999.0,98,-99.99,,,0.00,Acu-Link.com,2013-08-11 10:43:00,
2013-08-11 06:58:00,54.1,53.6,30.09,North,0,0.0,-999.0,98,-99.99,,,0.00,Acu-Link.com,2013-08-11 10:58:00,
2013-08-11 07:13:00,54.5,53.9,30.09,North,0,0.0,-999.0,98,-99.99,,,0.00,Acu-Link.com,2013-08-11 11:13:00,
2013-08-11 07:28:00,55.0,54.5,30.09,North,0,0.0,-999.0,98,-99.99,,,0.00,Acu-Link.com,2013-08-11 11:28:00,
2013-08-11 07:43:00,56.1,55.6,30.08,North,0,0.0,-999.0,98,-99.99,,,0.00,Acu-Link.com,2013-08-11 11:43:00,
2013-08-11 07:58:00,57.6,57.0,30.09,North,0,0.0,-999.0,98,-99.99,,,0.00,Acu-Link.com,2013-08-11 11:58:00,
2013-08-11 08:13:00,59.7,59.2,30.09,SW,225,0.0,-999.0,98,-99.99,,,0.00,Acu-Link.com,2013-08-11 12:13:00,
2013-08-11 08:28:00,60.3,59.7,30.09,SSW,202,0.0,-999.0,98,-99.99,,,0.00,Acu-Link.com,2013-08-11 12:28:00,
2013-08-11 08:44:00,61.7,58.1,30.09,SSE,157,0.0,-999.0,88,-99.99,,,0.00,Acu-Link.com,2013-08-11 12:44:00,
2013-08-11 08:59:00,62.4,58.5,30.09,South,180,0.0,-999.0,87,-99.99,,,0.00,Acu-Link.com,2013-08-11 12:59:00,
2013-08-11 09:14:00,63.9,57.9,30.09,North,0,0.0,-999.0,81,-99.99,,,0.00,Acu-Link.com,2013-08-11 13:14:00,
2013-08-11 09:29:00,65.3,57.2,30.09,SSE,157,0.0,-999.0,75,-99.99,,,0.00,Acu-Link.com,2013-08-11 13:29:00,
2013-08-11 09:44:00,66.0,57.9,30.09,SSW,202,0.0,-999.0,75,-99.99,,,0.00,Acu-Link.com,2013-08-11 13:44:00,
2013-08-11 09:59:00,67.3,56.8,30.09,SSW,202,0.0,-999.0,69,-99.99,,,0.00,Acu-Link.com,2013-08-11 13:59:00,
2013-08-11 10:15:00,69.3,57.8,30.09,ESE,112,0.0,-999.0,67,-99.99,,,0.00,Acu-Link.com,2013-08-11 14:15:00,
2013-08-11 10:30:00,70.0,57.7,30.09,ESE,112,1.6,-999.0,65,-99.99,,,0.00,Acu-Link.com,2013-08-11 14:30:00,
2013-08-11 10:45:00,70.3,57.1,30.09,SE,135,3.8,-999.0,63,-99.99,,,0.00,Acu-Link.com,2013-08-11 14:45:00,
2013-08-11 11:00:00,70.7,56.6,30.09,South,180,3.8,-999.0,61,-99.99,,,0.00,Acu-Link.com,2013-08-11 15:00:00,
2013-08-11 11:15:00,71.1,56.0,30.09,SW,225,1.6,-999.0,59,-99.99,,,0.00,Acu-Link.com,2013-08-11 15:15:00,
2013-08-11 11:31:00,72.0,56.8,30.08,SSE,157,2.7,-999.0,59,-99.99,,,0.00,Acu-Link.com,2013-08-11 15:31:00,
2013-08-11 11:46:00,72.3,55.7,30.08,SE,135,1.6,-999.0,56,-99.99,,,0.00,Acu-Link.com,2013-08-11 15:46:00,
2013-08-11 12:01:00,72.9,56.2,30.08,SW,225,4.3,-999.0,56,-99.99,,,0.00,Acu-Link.com,2013-08-11 16:01:00,
2013-08-11 12:16:00,72.1,54.6,30.07,SSW,202,0.0,-999.0,54,-99.99,,,0.00,Acu-Link.com,2013-08-11 16:16:00,
2013-08-11 12:47:00,73.9,56.2,30.06,South,180,2.7,-999.0,54,-99.99,,,0.00,Acu-Link.com,2013-08-11 16:47:00,
2013-08-11 13:02:00,73.6,55.9,30.07,SSW,202,0.0,-999.0,54,-99.99,,,0.00,Acu-Link.com,2013-08-11 17:02:00,
2013-08-11 13:17:00,72.7,56.6,30.06,SSW,202,1.1,-999.0,57,-99.99,,,0.00,Acu-Link.com,2013-08-11 17:17:00,
2013-08-11 13:32:00,72.7,56.6,30.06,WSW,247,2.2,-999.0,57,-99.99,,,0.00,Acu-Link.com,2013-08-11 17:32:00,
2013-08-11 13:47:00,71.6,55.5,30.05,WSW,247,0.0,-999.0,57,-99.99,,,0.00,Acu-Link.com,2013-08-11 17:47:00,
2013-08-11 14:03:00,74.5,58.2,30.05,West,270,0.0,-999.0,57,-99.99,,,0.00,Acu-Link.com,2013-08-11 18:03:00,
2013-08-11 14:33:00,74.3,58.1,30.05,ESE,112,2.7,-999.0,57,-99.99,,,0.00,Acu-Link.com,2013-08-11 18:33:00,
2013-08-11 14:48:00,74.5,56.2,30.04,West,270,3.1,-999.0,53,-99.99,,,0.00,Acu-Link.com,2013-08-11 18:48:00,
2013-08-11 15:03:00,74.1,54.8,30.03,ESE,112,0.0,-999.0,51,-99.99,,,0.00,Acu-Link.com,2013-08-11 19:03:00,
2013-08-11 15:19:00,72.9,55.2,30.03,South,180,2.2,-999.0,54,-99.99,,,0.00,Acu-Link.com,2013-08-11 19:19:00,
2013-08-11 15:34:00,73.4,55.2,30.03,SSW,202,2.7,-999.0,53,-99.99,,,0.00,Acu-Link.com,2013-08-11 19:34:00,
2013-08-11 15:49:00,73.2,55.6,30.03,WSW,247,1.1,-999.0,54,-99.99,,,0.00,Acu-Link.com,2013-08-11 19:49:00,
2013-08-11 16:04:00,72.5,55.4,30.03,SSW,202,2.2,-999.0,55,-99.99,,,0.00,Acu-Link.com,2013-08-11 20:04:00,
2013-08-11 16:20:00,72.3,54.7,30.02,ESE,112,0.0,-999.0,54,-99.99,,,0.00,Acu-Link.com,2013-08-11 20:20:00,
2013-08-11 16:35:00,72.3,55.2,30.02,ESE,112,2.2,-999.0,55,-99.99,,,0.00,Acu-Link.com,2013-08-11 20:35:00,
2013-08-11 16:50:00,71.4,53.4,30.03,West,270,1.1,-999.0,53,-99.99,,,0.00,Acu-Link.com,2013-08-11 20:50:00,
2013-08-11 17:05:00,71.1,54.6,30.02,WSW,247,3.1,-999.0,56,-99.99,,,0.00,Acu-Link.com,2013-08-11 21:05:00,
2013-08-11 17:20:00,71.1,54.1,30.02,SW,225,4.3,-999.0,55,-99.99,,,0.00,Acu-Link.com,2013-08-11 21:20:00,
2013-08-11 17:36:00,70.9,54.4,30.02,East,90,3.1,-999.0,56,-99.99,,,0.00,Acu-Link.com,2013-08-11 21:36:00,
2013-08-11 17:51:00,70.7,53.7,30.02,WSW,247,0.0,-999.0,55,-99.99,,,0.00,Acu-Link.com,2013-08-11 21:51:00,
2013-08-11 18:06:00,70.2,54.2,30.02,SW,225,2.2,-999.0,57,-99.99,,,0.00,Acu-Link.com,2013-08-11 22:06:00,
2013-08-11 18:21:00,69.4,53.5,30.02,SSW,202,1.1,-999.0,57,-99.99,,,0.00,Acu-Link.com,2013-08-11 22:21:00,
2013-08-11 18:36:00,68.7,54.3,30.02,WSW,247,0.0,-999.0,60,-99.99,,,0.00,Acu-Link.com,2013-08-11 22:36:00,
2013-08-11 18:52:00,68.2,54.2,30.01,SW,225,0.0,-999.0,61,-99.99,,,0.00,Acu-Link.com,2013-08-11 22:52:00,
2013-08-11 19:07:00,67.8,55.6,30.02,SSW,202,0.0,-999.0,65,-99.99,,,0.00,Acu-Link.com,2013-08-11 23:07:00,
2013-08-11 19:22:00,67.1,55.8,30.02,ESE,112,0.0,-999.0,67,-99.99,,,0.00,Acu-Link.com,2013-08-11 23:22:00,
2013-08-11 19:52:00,65.7,54.8,30.02,West,270,0.0,-999.0,68,-99.99,,,0.00,Acu-Link.com,2013-08-11 23:52:00,
2013-08-11 20:08:00,64.4,54.8,30.02,West,270,0.0,-999.0,71,-99.99,,,0.00,Acu-Link.com,2013-08-12 00:08:00,
2013-08-11 20:23:00,63.9,55.4,30.02,WSW,247,0.0,-999.0,74,-99.99,,,0.00,Acu-Link.com,2013-08-12 00:23:00,
2013-08-11 20:38:00,63.1,55.1,30.03,West,270,0.0,-999.0,75,-99.99,,,0.00,Acu-Link.com,2013-08-12 00:38:00,
2013-08-11 20:53:00,62.6,54.6,30.03,SSW,202,0.0,-999.0,75,-99.99,,,0.00,Acu-Link.com,2013-08-12 00:53:00,
2013-08-11 21:09:00,62.4,54.4,30.02,SSW,202,0.0,-999.0,75,-99.99,,,0.00,Acu-Link.com,2013-08-12 01:09:00,
2013-08-11 21:24:00,62.2,54.9,30.03,SSW,202,0.0,-999.0,77,-99.99,,,0.00,Acu-Link.com,2013-08-12 01:24:00,
2013-08-11 21:39:00,62.1,55.5,30.03,SW,225,0.0,-999.0,79,-99.99,,,0.00,Acu-Link.com,2013-08-12 01:39:00,
2013-08-11 21:54:00,61.7,55.8,30.03,SW,225,0.0,-999.0,81,-99.99,,,0.00,Acu-Link.com,2013-08-12 01:54:00,
2013-08-11 22:25:00,61.7,56.1,30.03,South,180,0.0,-999.0,82,-99.99,,,0.00,Acu-Link.com,2013-08-12 02:25:00,
2013-08-11 22:40:00,61.5,56.6,30.03,SSW,202,0.0,-999.0,84,-99.99,,,0.00,Acu-Link.com,2013-08-12 02:40:00,
2013-08-11 22:55:00,61.3,56.5,30.03,South,180,0.0,-999.0,84,-99.99,,,0.00,Acu-Link.com,2013-08-12 02:55:00,
2013-08-11 23:10:00,61.3,57.4,30.03,NNW,337,0.0,-999.0,87,-99.99,,,0.00,Acu-Link.com,2013-08-12 03:10:00,
2013-08-11 23:25:00,61.2,57.6,30.03,NNW,337,0.0,-999.0,88,-99.99,,,0.00,Acu-Link.com,2013-08-12 03:25:00,
2013-08-11 23:41:00,61.0,58.3,30.03,NNW,337,0.0,-999.0,91,-99.99,,,0.00,Acu-Link.com,2013-08-12 03:41:00,
2013-08-11 23:56:00,61.0,58.9,30.03,NNW,337,0.0,-999.0,93,-99.99,,,0.00,Acu-Link.com,2013-08-12 03:56:00,